createdAt,value
2022-09-17T00:01:33.348Z,59.71
2022-09-17T00:04:04.291Z,60.79
2022-09-17T00:06:35.383Z,61.62
2022-09-17T00:09:06.040Z,61.50
2022-09-17T00:11:37.772Z,61.88
2022-09-17T00:14:07.818Z,61.95
2022-09-17T00:16:38.403Z,60.27
2022-09-17T00:19:10.218Z,61.10
2022-09-17T00:21:46.360Z,60.78
2022-09-17T00:24:15.175Z,61.02
2022-09-17T00:26:45.382Z,61.61
2022-09-17T00:29:17.830Z,62.90
2022-09-17T00:31:45.061Z,63.24
2022-09-17T00:34:12.346Z,62.52
2022-09-17T00:36:40.533Z,62.25
2022-09-17T00:39:10.058Z,61.70
2022-09-17T00:41:38.808Z,61.66
2022-09-17T00:44:53.464Z,61.59
2022-09-17T00:47:48.017Z,62.81
2022-09-17T00:50:32.097Z,63.65
2022-09-17T00:53:19.414Z,64.05
2022-09-17T00:55:48.683Z,63.10
2022-09-17T00:58:19.194Z,62.81
2022-09-17T01:00:47.290Z,62.64
2022-09-17T01:03:15.006Z,63.77
2022-09-17T01:06:29.319Z,62.75
2022-09-17T01:09:11.470Z,62.46
2022-09-17T01:11:47.612Z,63.00
2022-09-17T01:14:46.633Z,62.26
2022-09-17T01:17:51.136Z,63.43
2022-09-17T01:20:39.232Z,63.24
2022-09-17T01:23:30.217Z,62.81
2022-09-17T01:26:24.981Z,62.80
2022-09-17T01:29:31.924Z,62.53
2022-09-17T01:32:58.325Z,61.83
2022-09-17T01:35:40.997Z,62.54
2022-09-17T01:38:36.168Z,60.98
2022-09-17T01:41:45.885Z,61.15
2022-09-17T01:44:14.639Z,61.26
2022-09-17T01:46:54.640Z,62.71
2022-09-17T01:49:25.557Z,62.27
2022-09-17T01:51:54.885Z,62.32
2022-09-17T01:55:01.971Z,61.54
2022-09-17T01:57:36.589Z,61.03
2022-09-17T02:00:17.543Z,61.56
2022-09-17T02:02:54.699Z,60.99
2022-09-17T02:05:54.665Z,60.65
2022-09-17T02:08:26.686Z,61.57
2022-09-17T02:11:15.321Z,61.39
2022-09-17T02:14:05.812Z,60.44
2022-09-17T02:16:36.741Z,61.30
2022-09-17T02:19:23.318Z,60.39
2022-09-17T02:22:19.726Z,60.29
2022-09-17T02:25:12.418Z,59.18
2022-09-17T02:27:51.378Z,59.91
2022-09-17T02:30:18.904Z,59.86
2022-09-17T02:32:46.713Z,60.28
2022-09-17T02:35:15.008Z,59.62
2022-09-17T02:37:43.795Z,59.99
2022-09-17T02:40:15.509Z,59.99
2022-09-17T02:42:57.316Z,59.41
2022-09-17T02:45:54.724Z,60.47
2022-09-17T02:48:52.047Z,59.21
2022-09-17T02:52:06.223Z,58.42
2022-09-17T02:54:35.862Z,59.35
2022-09-17T02:57:47.662Z,58.80
2022-09-17T03:00:23.278Z,59.18
2022-09-17T03:03:14.446Z,58.35
2022-09-17T03:05:42.865Z,58.34
2022-09-17T03:08:14.484Z,58.14
2022-09-17T03:10:41.776Z,57.90
2022-09-17T03:13:11.156Z,59.31
2022-09-17T03:15:40.798Z,58.61
2022-09-17T03:18:07.858Z,58.17
2022-09-17T03:20:35.017Z,57.23
2022-09-17T03:23:04.738Z,58.31
2022-09-17T03:25:36.237Z,58.24
2022-09-17T03:28:03.696Z,57.43
2022-09-17T03:30:31.845Z,59.04
2022-09-17T03:32:58.913Z,58.58
2022-09-17T03:35:26.053Z,58.38
2022-09-17T03:37:53.152Z,57.95
2022-09-17T03:40:20.482Z,58.26
2022-09-17T03:42:48.556Z,58.79
2022-09-17T03:45:15.833Z,58.61
2022-09-17T03:47:42.979Z,61.71
2022-09-17T03:50:15.096Z,61.71
2022-09-17T03:52:44.305Z,62.73
2022-09-17T03:55:11.680Z,62.39
2022-09-17T03:57:38.832Z,63.13
2022-09-17T04:00:07.366Z,63.53
2022-09-17T04:02:36.927Z,62.62
2022-09-17T04:05:04.822Z,64.16
2022-09-17T04:07:31.907Z,63.50
2022-09-17T04:09:58.985Z,63.12
2022-09-17T04:12:25.998Z,64.02
2022-09-17T04:14:53.011Z,63.79
2022-09-17T04:17:20.058Z,63.56
2022-09-17T04:19:47.101Z,63.49
2022-09-17T04:22:14.080Z,63.18
2022-09-17T04:24:41.223Z,63.46
2022-09-17T04:27:08.234Z,64.12
2022-09-17T04:29:35.339Z,63.90
2022-09-17T04:32:02.823Z,62.92
2022-09-17T04:34:29.818Z,63.15
2022-09-17T04:36:56.770Z,63.40
2022-09-17T04:39:23.749Z,64.55
2022-09-17T04:41:52.765Z,64.12
2022-09-17T04:44:19.859Z,63.84
2022-09-17T04:46:46.871Z,64.36
2022-09-17T04:49:14.065Z,63.65
2022-09-17T04:51:41.099Z,64.10
2022-09-17T04:54:08.057Z,62.97
2022-09-17T04:56:35.032Z,62.65
2022-09-17T04:59:04.115Z,63.55
2022-09-17T05:01:31.275Z,64.14
2022-09-17T05:03:58.411Z,64.43
2022-09-17T05:06:25.571Z,63.48
2022-09-17T05:08:52.537Z,63.49
2022-09-17T05:11:19.610Z,63.57
2022-09-17T05:13:46.750Z,63.83
2022-09-17T05:16:13.794Z,63.58
2022-09-17T05:18:40.795Z,65.15
2022-09-17T05:21:08.052Z,62.43
2022-09-17T05:23:35.140Z,62.75
2022-09-17T05:26:02.723Z,63.25
2022-09-17T05:28:29.916Z,63.01
2022-09-17T05:31:00.421Z,64.37
2022-09-17T05:33:27.490Z,63.25
2022-09-17T05:35:54.998Z,63.63
2022-09-17T05:38:22.412Z,63.68
2022-09-17T05:40:49.651Z,62.69
2022-09-17T05:43:17.296Z,62.86
2022-09-17T05:45:46.904Z,60.99
2022-09-17T05:48:15.562Z,61.10
2022-09-17T05:50:43.003Z,62.48
2022-09-17T05:53:14.149Z,63.14
2022-09-17T05:55:41.332Z,63.94
2022-09-17T05:58:21.111Z,62.76
2022-09-17T06:00:48.905Z,63.36
2022-09-17T06:03:19.890Z,61.92
2022-09-17T06:06:00.842Z,62.74
2022-09-17T06:08:30.831Z,63.51
2022-09-17T06:11:03.677Z,63.37
2022-09-17T06:13:31.071Z,63.17
2022-09-17T06:15:58.194Z,64.41
2022-09-17T06:18:25.431Z,64.36
2022-09-17T06:21:01.813Z,64.13
2022-09-17T06:23:37.300Z,64.48
2022-09-17T06:26:06.341Z,65.21
2022-09-17T06:28:36.763Z,65.71
2022-09-17T06:31:11.428Z,65.24
2022-09-17T06:33:38.648Z,65.80
2022-09-17T06:36:13.667Z,65.11
2022-09-17T06:38:43.964Z,65.80
2022-09-17T06:41:11.202Z,65.56
2022-09-17T06:43:38.242Z,66.09
2022-09-17T06:46:06.344Z,65.09
2022-09-17T06:48:35.954Z,66.03
2022-09-17T06:51:07.364Z,65.90
2022-09-17T06:53:38.315Z,65.94
2022-09-17T06:56:08.577Z,65.48
2022-09-17T06:58:41.584Z,63.84
2022-09-17T07:01:13.279Z,65.74
2022-09-17T07:03:43.401Z,66.33
2022-09-17T07:06:12.656Z,65.38
2022-09-17T07:08:41.850Z,64.33
2022-09-17T07:11:09.157Z,63.56
2022-09-17T07:13:36.227Z,63.98
2022-09-17T07:16:05.281Z,64.02
2022-09-17T07:18:33.164Z,62.94
2022-09-17T07:21:06.126Z,63.99
2022-09-17T07:23:36.505Z,63.15
2022-09-17T07:26:16.120Z,63.71
2022-09-17T07:28:47.455Z,63.88
2022-09-17T07:31:16.701Z,63.19
2022-09-17T07:33:45.249Z,63.36
2022-09-17T07:36:15.085Z,62.71
2022-09-17T07:38:42.450Z,63.21
2022-09-17T07:41:17.745Z,62.20
2022-09-17T07:43:45.386Z,63.70
2022-09-17T07:46:19.332Z,63.83
2022-09-17T07:48:47.826Z,65.00
2022-09-17T07:51:21.981Z,65.06
2022-09-17T07:53:58.149Z,64.80
2022-09-17T07:56:27.162Z,64.73
2022-09-17T07:58:54.668Z,64.90
2022-09-17T08:01:24.327Z,64.47
2022-09-17T08:03:53.914Z,65.23
2022-09-17T08:06:26.222Z,65.42
2022-09-17T08:08:55.686Z,64.68
2022-09-17T08:14:15.971Z,64.12
2022-09-17T08:16:43.214Z,64.68
2022-09-17T08:19:12.286Z,64.01
2022-09-17T08:21:39.401Z,64.19
2022-09-17T08:24:06.691Z,64.16
2022-09-17T08:26:33.765Z,64.10
2022-09-17T08:29:03.441Z,65.42
2022-09-17T08:31:33.430Z,64.55
2022-09-17T08:34:00.942Z,63.00
2022-09-17T08:36:28.149Z,62.24
2022-09-17T08:38:56.783Z,61.50
2022-09-17T08:41:44.735Z,61.03
2022-09-17T08:44:30.516Z,61.83
2022-09-17T08:47:43.327Z,60.61
2022-09-17T08:50:42.000Z,61.46
2022-09-17T08:53:38.728Z,61.70
2022-09-17T08:56:16.209Z,61.43
2022-09-17T08:58:55.033Z,62.61
2022-09-17T09:01:40.171Z,61.64
2022-09-17T09:04:25.109Z,61.45
2022-09-17T09:07:00.870Z,62.37
2022-09-17T09:09:38.200Z,60.68
2022-09-17T09:12:15.470Z,60.22
2022-09-17T09:15:00.222Z,60.74
2022-09-17T09:17:38.824Z,59.68
2022-09-17T09:20:16.181Z,60.08
2022-09-17T09:22:52.820Z,60.30
2022-09-17T09:25:27.139Z,59.12
2022-09-17T09:28:35.237Z,57.56
2022-09-17T09:31:29.417Z,56.96
2022-09-17T09:33:59.569Z,54.97
2022-09-17T09:36:34.637Z,54.75
2022-09-17T09:39:12.758Z,55.52
2022-09-17T09:42:18.030Z,55.32
2022-09-17T09:44:45.324Z,55.97
2022-09-17T09:47:54.886Z,55.93
2022-09-17T09:51:02.251Z,55.45
2022-09-17T09:54:08.119Z,56.00
2022-09-17T09:57:07.490Z,57.43
2022-09-17T09:59:37.035Z,56.81
2022-09-17T10:02:05.074Z,56.41
2022-09-17T10:04:35.136Z,56.73
2022-09-17T10:07:09.554Z,56.21
2022-09-17T10:09:39.470Z,56.13
2022-09-17T10:12:18.092Z,55.40
2022-09-17T10:14:46.726Z,55.58
2022-09-17T10:17:21.847Z,54.81
2022-09-17T10:20:10.498Z,55.38
2022-09-17T10:22:47.651Z,53.62
2022-09-17T10:25:44.354Z,54.74
2022-09-17T10:28:55.911Z,54.15
2022-09-17T10:31:23.379Z,53.23
2022-09-17T10:34:02.287Z,53.25
2022-09-17T10:36:51.108Z,51.63
2022-09-17T10:39:34.767Z,49.82
2022-09-17T10:42:16.542Z,50.81
2022-09-17T10:45:31.127Z,50.86
2022-09-17T10:48:00.414Z,50.63
2022-09-17T10:50:35.805Z,49.54
2022-09-17T10:53:10.104Z,47.24
2022-09-17T10:56:01.426Z,43.91
2022-09-17T10:58:41.737Z,41.91
2022-09-17T11:01:23.821Z,39.58
2022-09-17T11:04:09.586Z,38.27
2022-09-17T11:06:40.102Z,38.69
2022-09-17T11:09:55.131Z,41.51
2022-09-17T11:12:36.984Z,42.83
2022-09-17T11:15:14.553Z,41.87
2022-09-17T11:17:56.779Z,42.19
2022-09-17T11:20:58.272Z,42.66
2022-09-17T11:24:13.188Z,42.68
2022-09-17T11:27:23.074Z,41.49
2022-09-17T11:30:08.255Z,40.49
2022-09-17T11:33:07.878Z,39.36
2022-09-17T11:36:00.147Z,38.70
2022-09-17T11:38:43.273Z,36.68
2022-09-17T11:41:28.280Z,36.65
2022-09-17T11:47:42.956Z,36.44
2022-09-17T11:50:53.090Z,34.79
2022-09-17T11:53:35.221Z,34.30
2022-09-17T11:56:03.349Z,34.54
2022-09-17T11:58:48.231Z,33.00
2022-09-17T12:01:53.983Z,33.14
2022-09-17T12:04:59.830Z,33.76
2022-09-17T12:07:53.618Z,34.82
2022-09-17T12:10:51.508Z,36.00
2022-09-17T12:13:24.753Z,36.87
2022-09-17T12:16:07.683Z,36.03
2022-09-17T12:18:48.241Z,35.02
2022-09-17T12:21:23.795Z,37.21
2022-09-17T12:23:59.299Z,39.60
2022-09-17T12:27:03.358Z,41.71
2022-09-17T12:30:07.488Z,45.87
2022-09-17T12:32:56.974Z,47.27
2022-09-17T12:36:07.018Z,46.31
2022-09-17T12:39:11.405Z,48.47
2022-09-17T12:42:26.673Z,48.99
2022-09-17T12:45:21.700Z,50.42
2022-09-17T12:48:14.817Z,46.27
2022-09-17T12:50:56.911Z,44.23
2022-09-17T12:53:35.899Z,42.63
2022-09-17T12:56:52.852Z,49.50
2022-09-17T12:59:22.364Z,50.22
2022-09-17T13:02:20.240Z,48.47
2022-09-17T13:05:27.366Z,50.01
2022-09-17T13:08:09.114Z,51.38
2022-09-17T13:11:21.291Z,52.81
2022-09-17T13:14:14.692Z,55.11
2022-09-17T13:17:06.784Z,56.71
2022-09-17T13:19:59.646Z,76.25
2022-09-17T13:22:43.104Z,89.13
2022-09-17T13:25:14.153Z,66.47
2022-09-17T13:27:45.011Z,64.09
2022-09-17T13:30:18.352Z,64.16
2022-09-17T13:32:51.643Z,63.72
2022-09-17T13:35:18.601Z,64.69
2022-09-17T13:37:59.657Z,65.25
2022-09-17T13:40:36.124Z,64.30
2022-09-17T13:43:10.047Z,64.06
2022-09-17T13:46:01.505Z,62.88
2022-09-17T13:48:50.991Z,63.22
2022-09-17T13:51:32.971Z,63.52
2022-09-17T13:54:05.238Z,62.87
2022-09-17T13:56:39.053Z,61.98
2022-09-17T13:59:28.520Z,60.96
2022-09-17T14:02:27.452Z,60.76
2022-09-17T14:05:25.974Z,61.04
2022-09-17T14:08:05.940Z,58.46
2022-09-17T14:10:45.189Z,52.73
2022-09-17T14:14:05.761Z,52.00
2022-09-17T14:16:50.392Z,49.61
2022-09-17T14:19:51.382Z,50.50
2022-09-17T14:22:26.769Z,51.58
2022-09-17T14:24:55.072Z,50.05
2022-09-17T14:27:56.071Z,50.76
2022-09-17T14:30:29.656Z,51.70
2022-09-17T14:33:19.027Z,51.10
2022-09-17T14:36:18.207Z,49.82
2022-09-17T14:38:51.429Z,51.21
2022-09-17T14:41:35.763Z,49.34
2022-09-17T14:44:19.251Z,49.53
2022-09-17T14:47:13.486Z,48.91
2022-09-17T14:49:41.055Z,48.10
2022-09-17T14:52:27.463Z,48.22
2022-09-17T14:55:25.492Z,47.68
2022-09-17T14:57:59.012Z,47.80
2022-09-17T15:00:35.635Z,46.73
2022-09-17T15:03:02.764Z,45.90
2022-09-17T15:05:39.977Z,46.70
2022-09-17T15:08:09.903Z,44.81
2022-09-17T15:11:02.235Z,43.30
2022-09-17T15:13:41.305Z,43.74
2022-09-17T15:16:30.551Z,43.81
2022-09-17T15:19:03.685Z,44.90
2022-09-17T15:21:43.792Z,46.03
2022-09-17T15:24:33.357Z,47.80
2022-09-17T15:27:12.477Z,49.99
2022-09-17T15:29:45.365Z,51.67
2022-09-17T15:32:14.176Z,52.56
2022-09-17T15:34:43.660Z,53.26
2022-09-17T15:37:25.692Z,53.21
2022-09-17T15:39:55.690Z,54.19
2022-09-17T15:42:31.057Z,54.84
2022-09-17T15:45:22.069Z,56.10
2022-09-17T15:48:00.435Z,56.74
2022-09-17T15:50:34.334Z,56.45
2022-09-17T15:53:10.510Z,58.44
2022-09-17T15:55:58.519Z,57.31
2022-09-17T15:58:51.258Z,58.38
2022-09-17T16:01:20.402Z,59.29
2022-09-17T16:04:07.483Z,59.21
2022-09-17T16:06:36.695Z,60.51
2022-09-17T16:09:04.217Z,60.59
2022-09-17T16:11:32.595Z,59.84
2022-09-17T16:14:03.666Z,59.82
2022-09-17T16:16:36.675Z,60.27
2022-09-17T16:19:06.757Z,60.82
2022-09-17T16:21:33.765Z,61.06
2022-09-17T16:24:00.914Z,61.22
2022-09-17T16:26:32.567Z,61.73
2022-09-17T16:29:07.639Z,61.80
2022-09-17T16:31:34.768Z,61.41
2022-09-17T16:34:01.968Z,61.56
2022-09-17T16:36:31.258Z,62.41
2022-09-17T16:38:59.567Z,61.40
2022-09-17T16:41:29.546Z,60.11
2022-09-17T16:43:57.472Z,61.81
2022-09-17T16:46:24.502Z,61.23
2022-09-17T16:48:51.778Z,60.16
2022-09-17T16:51:19.003Z,60.59
2022-09-17T16:53:46.201Z,61.43
2022-09-17T16:56:15.561Z,60.69
2022-09-17T16:58:43.473Z,61.84
2022-09-17T17:01:15.969Z,62.05
2022-09-17T17:03:45.443Z,62.12
2022-09-17T17:06:20.694Z,62.58
2022-09-17T17:08:49.181Z,62.65
2022-09-17T17:11:16.176Z,62.19
2022-09-17T17:13:43.983Z,62.58
2022-09-17T17:16:14.550Z,63.43
2022-09-17T17:18:47.602Z,63.75
2022-09-17T17:21:21.366Z,63.55
2022-09-17T17:23:48.440Z,63.17
2022-09-17T17:26:16.469Z,63.46
2022-09-17T17:28:44.183Z,63.58
2022-09-17T17:31:11.963Z,63.36
2022-09-17T17:33:39.053Z,63.43
2022-09-17T17:36:08.519Z,62.63
2022-09-17T17:38:37.048Z,63.46
2022-09-17T17:41:14.420Z,63.28
2022-09-17T17:43:42.242Z,62.58
2022-09-17T17:46:11.678Z,62.66
2022-09-17T17:48:39.361Z,63.88
2022-09-17T17:51:09.366Z,63.67
2022-09-17T17:53:37.300Z,64.44
2022-09-17T17:56:09.456Z,64.54
2022-09-17T17:58:48.014Z,63.91
2022-09-17T18:01:23.138Z,64.24
2022-09-17T18:03:50.298Z,63.27
2022-09-17T18:06:17.288Z,63.06
2022-09-17T18:08:45.186Z,62.86
2022-09-17T18:11:15.047Z,62.34
2022-09-17T18:13:42.214Z,63.22
2022-09-17T18:16:15.094Z,63.10
2022-09-17T18:18:45.306Z,62.91
2022-09-17T18:21:22.542Z,63.43
2022-09-17T18:23:50.468Z,63.94
2022-09-17T18:26:36.928Z,64.71
2022-09-17T18:29:07.724Z,64.32
2022-09-17T18:31:40.363Z,64.42
2022-09-17T18:34:10.690Z,65.03
2022-09-17T18:36:39.638Z,64.48
2022-09-17T18:42:05.494Z,65.74
2022-09-17T18:44:32.522Z,64.79
2022-09-17T18:46:59.671Z,65.48
2022-09-17T18:49:29.172Z,65.54
2022-09-17T18:51:56.306Z,65.54
2022-09-17T18:54:23.332Z,65.09
2022-09-17T18:56:50.299Z,64.84
2022-09-17T18:59:17.336Z,65.05
2022-09-17T19:01:46.938Z,65.19
2022-09-17T19:04:13.912Z,64.72
2022-09-17T19:06:41.783Z,65.04
2022-09-17T19:09:11.593Z,65.06
2022-09-17T19:11:38.581Z,64.74
2022-09-17T19:14:05.783Z,64.97
2022-09-17T19:16:32.970Z,65.94
2022-09-17T19:18:59.963Z,66.69
2022-09-17T19:21:27.558Z,66.39
2022-09-17T19:23:54.773Z,66.11
2022-09-17T19:26:26.036Z,66.71
2022-09-17T19:28:54.873Z,66.71
2022-09-17T19:31:22.619Z,66.83
2022-09-17T19:33:53.965Z,66.55
2022-09-17T19:36:21.619Z,66.06
2022-09-17T19:38:49.009Z,65.65
2022-09-17T19:41:23.255Z,66.48
2022-09-17T19:43:57.321Z,65.69
2022-09-17T19:46:28.897Z,65.49
2022-09-17T19:48:57.960Z,65.39
2022-09-17T19:51:28.933Z,65.85
2022-09-17T19:53:57.195Z,65.26
2022-09-17T19:56:26.831Z,64.94
2022-09-17T19:58:55.353Z,64.88
2022-09-17T20:01:22.581Z,64.60
2022-09-17T20:03:49.770Z,64.78
2022-09-17T20:06:20.738Z,64.90
2022-09-17T20:08:56.055Z,65.13
2022-09-17T20:11:25.186Z,66.11
2022-09-17T20:14:06.751Z,65.56
2022-09-17T20:16:37.176Z,65.92
2022-09-17T20:19:06.298Z,66.05
2022-09-17T20:21:34.266Z,66.65
2022-09-17T20:24:01.711Z,66.31
2022-09-17T20:26:28.794Z,64.57
2022-09-17T20:28:56.364Z,65.18
2022-09-17T20:31:30.335Z,64.79
2022-09-17T20:34:01.659Z,65.53
2022-09-17T20:36:36.185Z,64.92
2022-09-17T20:39:12.332Z,64.59
2022-09-17T20:41:41.549Z,64.70
2022-09-17T20:44:08.735Z,64.56
2022-09-17T20:46:37.002Z,65.11
2022-09-17T20:49:04.523Z,65.67
2022-09-17T20:51:33.239Z,64.83
2022-09-17T20:54:03.910Z,64.50
2022-09-17T20:56:33.551Z,65.06
2022-09-17T20:59:15.450Z,65.32
2022-09-17T21:01:47.511Z,66.01
2022-09-17T21:04:18.988Z,66.16
2022-09-17T21:06:47.623Z,64.80
2022-09-17T21:09:18.282Z,65.08
2022-09-17T21:11:48.122Z,65.26
2022-09-17T21:14:16.122Z,66.26
2022-09-17T21:16:43.775Z,65.12
2022-09-17T21:19:16.286Z,64.92
2022-09-17T21:21:47.969Z,65.40
2022-09-17T21:24:15.050Z,66.68
2022-09-17T21:26:42.574Z,65.87
2022-09-17T21:29:09.727Z,65.03
2022-09-17T21:31:38.296Z,65.96
2022-09-17T21:34:18.330Z,66.33
2022-09-17T21:36:49.912Z,66.17
2022-09-17T21:39:18.058Z,67.79
2022-09-17T21:41:47.787Z,67.29
2022-09-17T21:44:15.578Z,67.14
2022-09-17T21:46:43.338Z,66.60
2022-09-17T21:49:17.445Z,66.48
2022-09-17T21:51:44.527Z,66.94
2022-09-17T21:54:17.850Z,66.78
2022-09-17T21:56:46.400Z,66.64
2022-09-17T21:59:15.674Z,66.23
2022-09-17T22:01:48.936Z,65.86
2022-09-17T22:04:19.495Z,66.55
2022-09-17T22:06:48.810Z,66.88
2022-09-17T22:09:23.300Z,66.93
2022-09-17T22:11:53.803Z,65.85
2022-09-17T22:14:23.934Z,66.81
2022-09-17T22:16:58.749Z,66.44
2022-09-17T22:19:26.951Z,66.70
2022-09-17T22:21:55.968Z,66.98
2022-09-17T22:24:24.240Z,67.31
2022-09-17T22:26:57.931Z,66.97
2022-09-17T22:29:31.606Z,67.45
2022-09-17T22:31:58.801Z,67.79
2022-09-17T22:34:26.513Z,68.29
2022-09-17T22:36:55.755Z,66.70
2022-09-17T22:39:23.208Z,67.08
2022-09-17T22:41:52.835Z,66.70
2022-09-17T22:44:23.616Z,66.28
2022-09-17T22:46:52.082Z,66.45
2022-09-17T22:49:19.717Z,66.65
2022-09-17T22:51:47.337Z,65.95
2022-09-17T22:54:19.040Z,67.57
2022-09-17T22:56:48.098Z,67.52
2022-09-17T22:59:15.363Z,67.46
2022-09-17T23:01:42.930Z,68.58
2022-09-17T23:04:10.190Z,69.60
2022-09-17T23:06:42.270Z,69.00
2022-09-17T23:09:09.591Z,69.09
2022-09-17T23:11:41.114Z,69.50
2022-09-17T23:14:12.275Z,69.54
2022-09-17T23:16:43.396Z,69.00
2022-09-17T23:19:11.471Z,68.75
2022-09-17T23:21:39.339Z,68.47
2022-09-17T23:24:06.678Z,69.33
2022-09-17T23:26:34.210Z,70.19
2022-09-17T23:29:05.408Z,69.31
2022-09-17T23:31:35.086Z,68.52
2022-09-17T23:34:03.823Z,67.62
2022-09-17T23:36:36.946Z,67.66
2022-09-17T23:39:06.555Z,67.51
2022-09-17T23:41:40.691Z,68.56
2022-09-17T23:44:14.875Z,67.48
2022-09-17T23:46:44.419Z,68.74
2022-09-17T23:49:13.696Z,68.38
2022-09-17T23:51:41.265Z,69.19
2022-09-17T23:54:08.592Z,68.62
2022-09-17T23:56:36.170Z,68.52
2022-09-17T23:59:04.643Z,69.31
